Mare Di Venezia — ICCN — position and weather

sailwx.info

Track history (hours):
 
Tides and Currents Weather Stations Pressure Air Temp Water Temp Dewpoint Dewpoint Depression Visibility Wind Speed Wind Dir Waves Ship Positions

Mare Di Venezia

Last reported at 2018-Apr-16 22:17 UTC. Time now 2018-Apr-20 12:51 UTC.
Position N 49°48' W 003°26'.

; draft 12 m.

Type: Tanker. MMSI: 247242400.

Date/timePositionNaut miles runAvg speedWind from/ knotsBaromVisibWave heightAir tempDewpointWater temp
2018-Apr-16 22:17N 49°48' W 003°26'311.3
2018-Apr-16 22:00N 49°49' W 003°21'710.8
2018-Apr-16 21:22N 49°52' W 003°12'4 9.9
2018-Apr-16 20:59N 49°54' W 003°07'5 9.4
2018-Apr-16 20:30N 49°57' W 003°01'5 9.1
2018-Apr-16 20:00N 49°59' W 002°55'5 8.8
2018-Apr-16 19:27N 50°01' W 002°48'4 9.1
2018-Apr-16 19:00N 50°02' W 002°42'5 9.1
2018-Apr-16 18:28N 50°03' W 002°35'2110.6
2018-Apr-16 16:30N 50°08' W 002°03'713.6
2018-Apr-16 16:01N 50°10' W 001°53'714.5
2018-Apr-16 15:30N 50°12' W 001°42'815.1
2018-Apr-16 15:00N 50°14' W 001°31'815.4
2018-Apr-16 14:31N 50°16' W 001°19'915.4
2018-Apr-16 13:57N 50°18' W 001°06'3013.7
2018-Apr-16 11:46N 50°26' W 000°21'312.1
2018-Apr-16 11:30N 50°27' W 000°16'611.4
2018-Apr-16 11:01N 50°28' W 000°07'510.5
2018-Apr-16 10:31N 50°30' E 000°01'5 9.9
2018-Apr-16 10:01N 50°31' E 000°08'5 9.0
2018-Apr-16 09:30N 50°32' E 000°15'4 8.8
2018-Apr-16 09:01N 50°33' E 000°22'5 9.2
2018-Apr-16 08:31N 50°34' E 000°29'5 9.8
2018-Apr-16 08:00N 50°36' E 000°36'510.9
2018-Apr-16 07:31N 50°39' E 000°43'611.9
2018-Apr-16 07:00N 50°42' E 000°50'612.8
2018-Apr-16 06:31N 50°46' E 000°59'813.3
2018-Apr-16 05:53N 50°51' E 001°09'1613.3
2018-Apr-16 04:43N 51°01' E 001°28'312.2
2018-Apr-16 04:28N 51°04' E 001°31'511.5
2018-Apr-16 04:00N 51°07' E 001°37'511.1
2018-Apr-16 03:30N 51°11' E 001°43'510.7
2018-Apr-16 03:01N 51°16' E 001°48'510.2
2018-Apr-16 02:30N 51°20' E 001°53'510.1
2018-Apr-16 02:00N 51°24' E 001°57'5 9.9
2018-Apr-16 01:30N 51°28' E 002°02'5 9.9
2018-Apr-16 01:00N 51°32' E 002°07'510.0
2018-Apr-16 00:30N 51°35' E 002°13'510.5
2018-Apr-15 23:59N 51°39' E 002°19'611.2
2018-Apr-15 23:27N 51°44' E 002°25'611.9
2018-Apr-15 22:56N 51°48' E 002°32'4112.2
2018-Apr-15 19:35N 52°04' E 003°33'413.1
2018-Apr-15 19:16N 52°03' E 003°40'313.1
2018-Apr-15 19:00N 52°03' E 003°45'611.7
2018-Apr-15 18:29N 52°02' E 003°55'510.8
2018-Apr-15 18:00N 51°60' E 004°02'5 9.5
2018-Apr-15 17:30N 51°57' E 004°09'3 5.0
2018-Apr-15 16:59N 51°56' E 004°12'0 0.0
2018-Apr-15 16:22N 51°56' E 004°12'0 0.0
2018-Apr-15 15:58N 51°56' E 004°12'0 0.0
2018-Apr-15 15:28N 51°56' E 004°12'0 0.0
2018-Apr-15 14:58N 51°56' E 004°12'0 0.0
2018-Apr-15 14:28N 51°56' E 004°12'0 0.0
2018-Apr-15 14:00N 51°56' E 004°12'0 0.0
2018-Apr-15 13:30N 51°56' E 004°12'0 0.0
2018-Apr-15 13:00N 51°56' E 004°12'0 0.0
2018-Apr-15 12:27N 51°56' E 004°12'0 0.0
2018-Apr-15 12:00N 51°56' E 004°12'0 0.0
2018-Apr-15 11:29N 51°56' E 004°12'0 0.0
2018-Apr-15 10:59N 51°56' E 004°12'0 0.0
2018-Apr-15 10:28N 51°56' E 004°12'0 0.0
2018-Apr-15 09:58N 51°56' E 004°12'0 0.0
2018-Apr-15 09:25N 51°56' E 004°12'0 0.0
2018-Apr-15 08:58N 51°56' E 004°12'0 0.0
2018-Apr-15 08:28N 51°56' E 004°12'0 0.0
2018-Apr-15 08:00N 51°56' E 004°12'0 0.0
2018-Apr-15 07:29N 51°56' E 004°12'0 0.0
2018-Apr-15 07:00N 51°56' E 004°12'0 0.0
2018-Apr-15 06:30N 51°56' E 004°12'0 0.0
2018-Apr-15 06:00N 51°56' E 004°12'0 0.0
2018-Apr-15 05:29N 51°56' E 004°12'0 0.0
2018-Apr-15 04:59N 51°56' E 004°12'0 0.0
2018-Apr-15 04:29N 51°56' E 004°12'0 0.0
2018-Apr-15 03:59N 51°56' E 004°12'0 0.0
2018-Apr-15 03:28N 51°56' E 004°12'0 0.0
2018-Apr-15 02:58N 51°56' E 004°12'0 0.0
2018-Apr-15 02:28N 51°56' E 004°12'0 0.0
2018-Apr-15 01:58N 51°56' E 004°12'0 0.0
2018-Apr-15 01:28N 51°56' E 004°12'0 0.0
2018-Apr-15 01:00N 51°56' E 004°12'0 0.0
2018-Apr-15 00:27N 51°56' E 004°12'0 0.0
2018-Apr-15 00:00N 51°56' E 004°12'0 0.0
2018-Apr-14 23:30N 51°56' E 004°12'0 0.0
2018-Apr-14 22:59N 51°56' E 004°12'0 0.0
2018-Apr-14 22:29N 51°56' E 004°12'0 0.0
2018-Apr-14 21:59N 51°56' E 004°12'0 0.0
2018-Apr-14 21:26N 51°56' E 004°12'0 0.0
2018-Apr-14 20:59N 51°56' E 004°12'0 0.0
2018-Apr-14 20:28N 51°56' E 004°12'0 0.0
2018-Apr-14 19:58N 51°56' E 004°12'0 0.0
2018-Apr-14 19:28N 51°56' E 004°12'0 0.0
2018-Apr-14 18:55N 51°56' E 004°12'0 0.0
2018-Apr-14 18:28N 51°56' E 004°12'0 0.0
2018-Apr-14 18:00N 51°56' E 004°12'0 0.0
2018-Apr-14 17:27N 51°56' E 004°12'0 0.0
2018-Apr-14 17:00N 51°56' E 004°12'0 0.0
2018-Apr-14 16:30N 51°56' E 004°12'0 0.0
2018-Apr-14 15:53N 51°56' E 004°12'0 0.0
2018-Apr-14 15:29N 51°56' E 004°12'0 0.0
2018-Apr-14 14:56N 51°56' E 004°12'0 0.0
2018-Apr-14 14:29N 51°56' E 004°12'0 0.0
2018-Apr-14 13:59N 51°56' E 004°12'0 0.0
2018-Apr-14 13:28N 51°56' E 004°12'0 0.0
2018-Apr-14 12:52N 51°56' E 004°12'0 0.0
2018-Apr-14 12:28N 51°56' E 004°12'0 0.0
2018-Apr-14 11:58N 51°56' E 004°12'0 0.0
2018-Apr-14 11:24N 51°56' E 004°12'0 0.0
2018-Apr-14 11:00N 51°56' E 004°12'0 0.0
2018-Apr-14 10:30N 51°56' E 004°12'0 0.0
2018-Apr-14 10:00N 51°56' E 004°12'0 0.0
2018-Apr-14 09:30N 51°56' E 004°12'0 0.0
2018-Apr-14 08:59N 51°56' E 004°12'0 0.0
2018-Apr-14 08:26N 51°56' E 004°12'0 0.0
2018-Apr-14 07:59N 51°56' E 004°12'0 0.0
2018-Apr-14 07:29N 51°56' E 004°12'0 0.0
2018-Apr-14 06:59N 51°56' E 004°12'0 0.0
2018-Apr-14 06:28N 51°56' E 004°12'0 0.0
2018-Apr-14 05:55N 51°56' E 004°12'0 0.0
2018-Apr-14 05:28N 51°56' E 004°12'0 0.0
2018-Apr-14 04:58N 51°56' E 004°12'0 0.0
2018-Apr-14 04:31N 51°56' E 004°12'0 0.0
2018-Apr-14 04:00N 51°56' E 004°12'0 0.0
2018-Apr-14 03:30N 51°56' E 004°12'0 0.0
2018-Apr-14 03:00N 51°56' E 004°12'0 0.0
2018-Apr-14 02:30N 51°56' E 004°12'0 0.0
2018-Apr-14 01:59N 51°56' E 004°12'0 0.0
2018-Apr-14 01:29N 51°56' E 004°12'0 0.0
2018-Apr-14 00:59N 51°56' E 004°12'0 0.0
2018-Apr-14 00:29N 51°56' E 004°12'0 0.0
2018-Apr-13 23:59N 51°56' E 004°12'0 0.0
2018-Apr-13 23:28N 51°56' E 004°12'0 0.0
2018-Apr-13 22:58N 51°56' E 004°12'0 0.0
2018-Apr-13 22:28N 51°56' E 004°12'0 0.0
2018-Apr-13 21:58N 51°56' E 004°12'0 0.0
2018-Apr-13 21:28N 51°56' E 004°12'0 0.0
2018-Apr-13 21:00N 51°56' E 004°12'0 0.0
2018-Apr-13 20:30N 51°56' E 004°12'0 0.0
2018-Apr-13 20:00N 51°56' E 004°12'0 0.0
2018-Apr-13 19:30N 51°56' E 004°12'0 0.0
2018-Apr-13 19:00N 51°56' E 004°12'0 0.1
2018-Apr-13 18:30N 51°56' E 004°12'1 1.2
2018-Apr-13 18:00N 51°56' E 004°12'3 6.4
2018-Apr-13 17:30N 51°58' E 004°07'5 9.7
2018-Apr-13 17:00N 51°60' E 004°00'510.9
2018-Apr-13 16:30N 52°01' E 003°52'510.0
2018-Apr-13 16:00N 52°05' E 003°46'5 9.7
2018-Apr-13 15:30N 52°10' E 003°46'4 7.5
2018-Apr-13 15:00N 52°12' E 003°42'1 1.4
2018-Apr-13 14:30N 52°12' E 003°41'0 0.0
2018-Apr-13 13:57N 52°12' E 003°41'0 0.0
2018-Apr-13 13:30N 52°12' E 003°41'0 0.0
2018-Apr-13 12:48N 52°12' E 003°41'0 0.1
2018-Apr-13 12:29N 52°12' E 003°41'0 0.1
2018-Apr-13 11:59N 52°12' E 003°41'0 0.0
2018-Apr-13 11:29N 52°12' E 003°41'0 0.1
2018-Apr-13 10:56N 52°12' E 003°41'0 0.1
2018-Apr-13 09:40N 52°11' E 003°41'0 0.2
2018-Apr-13 09:25N 52°11' E 003°41'0 0.0
2018-Apr-13 08:19N 52°11' E 003°41'0 0.0
2018-Apr-13 08:01N 52°11' E 003°41'0 0.0
2018-Apr-13 07:18N 52°11' E 003°41'0 0.0
2018-Apr-13 06:39N 52°11' E 003°41'0 0.1
2018-Apr-13 06:30N 52°11' E 003°41'0 0.0
2018-Apr-13 05:48N 52°11' E 003°41'0 0.0
2018-Apr-13 05:29N 52°11' E 003°41'0 0.1
2018-Apr-13 04:56N 52°11' E 003°41'0 0.2
2018-Apr-13 04:26N 52°12' E 003°41'0 0.1
2018-Apr-13 03:26N 52°12' E 003°41'0 0.1
2018-Apr-13 02:58N 52°12' E 003°41'0 0.0
2018-Apr-13 02:25N 52°12' E 003°41'0 0.0
2018-Apr-13 01:58N 52°12' E 003°41'0 0.0
2018-Apr-13 01:28N 52°12' E 003°41'0 0.0
2018-Apr-13 00:54N 52°12' E 003°41'0 0.0
2018-Apr-13 00:30N 52°12' E 003°41'0 0.0
2018-Apr-13 00:00N 52°12' E 003°41'0 0.1
2018-Apr-12 23:30N 52°12' E 003°41'0 0.2
2018-Apr-12 22:57N 52°12' E 003°41'0 0.1
2018-Apr-12 21:53N 52°11' E 003°41'0 0.0
2018-Apr-12 21:14N 52°11' E 003°41'0 0.0
2018-Apr-12 20:56N 52°11' E 003°41'0 0.0
2018-Apr-12 20:19N 52°11' E 003°41'0 0.0
2018-Apr-12 19:55N 52°11' E 003°41'0 0.0
2018-Apr-12 19:22N 52°11' E 003°41'0 0.0
2018-Apr-12 18:52N 52°11' E 003°41'0 0.0
2018-Apr-12 18:28N 52°11' E 003°41'0 0.0
2018-Apr-12 17:57N 52°11' E 003°41'0 0.0
2018-Apr-12 17:27N 52°11' E 003°41'0 0.0
2018-Apr-12 16:48N 52°11' E 003°41'0 0.0
2018-Apr-12 15:48N 52°11' E 003°41'0 0.3
2018-Apr-12 15:29N 52°11' E 003°41'0 0.3
2018-Apr-12 14:53N 52°12' E 003°41'0 0.0
2018-Apr-12 14:20N 52°12' E 003°41'0 0.0
2018-Apr-12 13:47N 52°12' E 003°41'0 0.0
2018-Apr-12 13:19N 52°12' E 003°41'0 0.0
2018-Apr-12 12:58N 52°12' E 003°41'0 0.0
2018-Apr-12 12:19N 52°12' E 003°41'0 0.1
2018-Apr-12 11:52N 52°12' E 003°41'0 0.1
2018-Apr-12 11:28N 52°12' E 003°41'0 0.1
2018-Apr-12 10:54N 52°12' E 003°41'0 0.1
2018-Apr-12 10:30N 52°12' E 003°41'0 0.1
2018-Apr-12 09:03N 52°12' E 003°41'0 0.2
2018-Apr-12 08:54N 52°11' E 003°41'0 0.0
2018-Apr-12 08:29N 52°11' E 003°41'0 0.0
2018-Apr-12 07:59N 52°11' E 003°41'0 0.0
2018-Apr-12 06:53N 52°11' E 003°41'0 0.0
2018-Apr-12 06:29N 52°11' E 003°41'0 0.0
2018-Apr-12 05:52N 52°11' E 003°41'0 0.0
2018-Apr-12 05:19N 52°11' E 003°41'0 0.0
2018-Apr-12 04:58N 52°11' E 003°41'0 0.0
2018-Apr-12 04:09N 52°11' E 003°41'0 0.1
2018-Apr-12 04:00N 52°11' E 003°41'0 0.2
2018-Apr-12 03:15N 52°12' E 003°41'0 0.0
2018-Apr-12 02:54N 52°12' E 003°41'0 0.1
2018-Apr-12 02:27N 52°12' E 003°41'0 0.0
2018-Apr-12 02:00N 52°12' E 003°41'0 0.0
2018-Apr-12 01:26N 52°12' E 003°41'0 0.1
2018-Apr-12 00:59N 52°12' E 003°41'0 0.1
2018-Apr-12 00:02N 52°12' E 003°41'0 0.1
2018-Apr-11 23:56N 52°12' E 003°41'0 0.1
2018-Apr-11 23:22N 52°12' E 003°41'0 0.1
2018-Apr-11 22:55N 52°12' E 003°41'0 0.0
2018-Apr-11 22:28N 52°12' E 003°41'0 0.0
2018-Apr-11 21:55N 52°12' E 003°41'0 0.1
2018-Apr-11 21:25N 52°12' E 003°41'0 0.1
2018-Apr-11 20:48N 52°11' E 003°41'0 0.0
2018-Apr-11 20:30N 52°11' E 003°41'0 0.1
2018-Apr-11 20:00N 52°12' E 003°41'0 0.0
2018-Apr-11 19:24N 52°12' E 003°41'0 0.0
2018-Apr-11 19:00N 52°12' E 003°41'0 0.0
2018-Apr-11 18:29N 52°12' E 003°41'0 0.1
2018-Apr-11 13:54N 52°12' E 003°41'0 0.1
2018-Apr-11 13:27N 52°12' E 003°41'0 0.0
2018-Apr-11 12:12N 52°12' E 003°41'0 0.1
2018-Apr-11 08:55N 52°12' E 003°41'0 0.0
2018-Apr-11 08:25N 52°12' E 003°41'0 0.0
2018-Apr-11 07:58N 52°12' E 003°41'0 0.0
2018-Apr-11 07:25N 52°12' E 003°41'0 0.0
2018-Apr-11 06:51N 52°12' E 003°41'0 0.0
2018-Apr-11 06:24N 52°12' E 003°41'0 0.0
2018-Apr-11 05:12N 52°12' E 003°41'0 0.1
2018-Apr-11 01:37N 52°12' E 003°41'0 0.1
2018-Apr-11 01:16N 52°12' E 003°41'0 0.1
2018-Apr-11 01:00N 52°12' E 003°41'0 0.0
2018-Apr-11 00:25N 52°12' E 003°41'0 0.2
2018-Apr-10 23:57N 52°12' E 003°41'0 0.1
2018-Apr-10 23:21N 52°12' E 003°41'0 0.1
2018-Apr-10 23:00N 52°12' E 003°41'0 0.1
2018-Apr-10 22:30N 52°12' E 003°41'0 0.1
2018-Apr-10 21:59N 52°12' E 003°41'0 0.0
2018-Apr-10 21:26N 52°12' E 003°41'0 0.1
2018-Apr-10 20:56N 52°12' E 003°41'0 0.2
2018-Apr-10 20:29N 52°12' E 003°41'0 0.1
2018-Apr-10 19:56N 52°11' E 003°41'0 0.1
2018-Apr-10 19:28N 52°11' E 003°41'0 0.0
2018-Apr-10 18:58N 52°11' E 003°41'0 0.0
2018-Apr-10 18:22N 52°11' E 003°41'0 0.0
2018-Apr-10 17:55N 52°11' E 003°41'0 0.0
2018-Apr-10 16:00N 52°11' E 003°41'0 0.0
2018-Apr-10 15:24N 52°11' E 003°41'0 0.1
2018-Apr-10 12:50N 52°12' E 003°41'0 0.1
2018-Apr-10 12:16N 52°12' E 003°41'0 0.0
2018-Apr-10 11:58N 52°12' E 003°41'0 0.0
2018-Apr-10 11:10N 52°12' E 003°41'0 0.0
2018-Apr-10 10:55N 52°12' E 003°41'0 0.0
2018-Apr-10 10:25N 52°12' E 003°41'0 0.0
2018-Apr-10 09:51N 52°12' E 003°41'0 0.0
2018-Apr-10 09:27N 52°12' E 003°41'0 0.1
2018-Apr-10 07:17N 52°11' E 003°41'0 0.1
2018-Apr-10 06:08N 52°11' E 003°41'0 0.0
2018-Apr-10 05:19N 52°11' E 003°41'0 0.1
2018-Apr-10 04:46N 52°11' E 003°41'0 0.0
2018-Apr-10 04:25N 52°11' E 003°41'0 0.0
2018-Apr-10 03:40N 52°11' E 003°41'0 0.1
2018-Apr-10 03:27N 52°11' E 003°41'0 0.1
2018-Apr-10 02:54N 52°11' E 003°41'0 0.0
2018-Apr-10 02:30N 52°11' E 003°41'0 0.0
2018-Apr-10 01:45N 52°11' E 003°41'0 0.1
2018-Apr-10 01:18N 52°11' E 003°41'0 0.1
2018-Apr-10 00:59N 52°12' E 003°41'0 0.1
2018-Apr-10 00:20N 52°12' E 003°41'0 0.0
2018-Apr-09 23:59N 52°12' E 003°41'0 0.1
2018-Apr-09 23:20N 52°12' E 003°41'0 0.1
2018-Apr-09 22:52N 52°12' E 003°41'0 0.3
2018-Apr-09 22:28N 52°11' E 003°41'0 0.2
2018-Apr-09 21:58N 52°12' E 003°41'0 0.2
2018-Apr-09 21:28N 52°11' E 003°41'0 0.2
2018-Apr-09 20:58N 52°12' E 003°41'0 0.0
2018-Apr-09 20:27N 52°12' E 003°41'0 0.1
2018-Apr-09 20:00N 52°12' E 003°41'0 0.1
2018-Apr-09 19:30N 52°11' E 003°41'0 0.0
2018-Apr-09 18:55N 52°11' E 003°41'2 3.0
2018-Apr-09 18:23N 52°11' E 003°38'5 8.9
2018-Apr-09 17:50N 52°10' E 003°31'5 8.2
2018-Apr-09 17:14N 52°09' E 003°23'610.5
2018-Apr-09 16:41N 52°14' E 003°18'212.1
2018-Apr-09 16:30N 52°16' E 003°17'16811.8
2018-Apr-09 02:18N 54°49' E 005°14'612.5
2018-Apr-09 01:50N 54°54' E 005°19'412.4
2018-Apr-09 01:30N 54°58' E 005°23'612.3
2018-Apr-09 00:59N 55°03' E 005°28'612.4
2018-Apr-09 00:29N 55°08' E 005°34'612.3
2018-Apr-08 23:59N 55°14' E 005°39'19911.6
2018-Apr-08 06:52N 57°43' E 009°37'512.0
2018-Apr-08 06:28N 57°44' E 009°45'712.4
2018-Apr-08 05:53N 57°45' E 009°59'512.6
2018-Apr-08 05:28N 57°47' E 010°08'612.6
2018-Apr-08 05:00N 57°48' E 010°19'613.0
2018-Apr-08 04:31N 57°49' E 010°31'612.0
2018-Apr-08 03:59N 57°49' E 010°43'611.9
2018-Apr-08 03:30N 57°46' E 010°52'612.6
2018-Apr-08 03:00N 57°42' E 011°01'612.6
2018-Apr-08 02:30N 57°37' E 011°09'612.6
2018-Apr-08 02:00N 57°33' E 011°17'612.4
2018-Apr-08 01:30N 57°29' E 011°26'611.8
2018-Apr-08 01:01N 57°23' E 011°30'611.7
2018-Apr-08 00:30N 57°18' E 011°33'611.9
2018-Apr-08 00:00N 57°12' E 011°37'612.2
2018-Apr-07 23:30N 57°06' E 011°41'612.0
2018-Apr-07 23:00N 57°00' E 011°44'611.7
2018-Apr-07 22:27N 56°55' E 011°49'4612.1
2018-Apr-07 18:39N 56°12' E 012°21'213.6
2018-Apr-07 18:29N 56°11' E 012°24'613.4
2018-Apr-07 18:01N 56°07' E 012°33'714.8
2018-Apr-07 17:31N 56°01' E 012°40'713.6
2018-Apr-07 17:00N 55°54' E 012°39'713.7
2018-Apr-07 16:31N 55°47' E 012°42'714.1
2018-Apr-07 16:00N 55°40' E 012°41'510.3
2018-Apr-07 15:30N 55°35' E 012°42'5 9.1
2018-Apr-07 15:00N 55°30' E 012°43'612.6
2018-Apr-07 14:30N 55°24' E 012°41'612.5
2018-Apr-07 14:00N 55°18' E 012°42'713.9
2018-Apr-07 13:29N 55°16' E 012°55'713.7
2018-Apr-07 13:00N 55°15' E 013°06'713.8
2018-Apr-07 12:30N 55°15' E 013°18'713.9
2018-Apr-07 12:00N 55°14' E 013°30'714.1
2018-Apr-07 11:29N 55°14' E 013°43'713.8
2018-Apr-07 11:00N 55°13' E 013°55'713.8
2018-Apr-07 10:30N 55°13' E 014°07'713.3
2018-Apr-07 10:00N 55°14' E 014°18'713.1
2018-Apr-07 09:30N 55°19' E 014°26'613.1
2018-Apr-07 09:00N 55°24' E 014°33'713.1
2018-Apr-07 08:30N 55°28' E 014°43'713.6
2018-Apr-07 08:00N 55°30' E 014°54'613.0
2018-Apr-07 07:30N 55°29' E 015°05'713.8
2018-Apr-07 07:00N 55°25' E 015°15'713.9
2018-Apr-07 06:30N 55°21' E 015°25'713.9
2018-Apr-07 06:00N 55°18' E 015°36'713.8
2018-Apr-07 05:29N 55°16' E 015°48'613.7
2018-Apr-07 05:01N 55°15' E 015°59'713.6
2018-Apr-07 04:30N 55°13' E 016°11'1013.5
2018-Apr-07 03:45N 55°11' E 016°28'4113.3
2018-Apr-07 00:39N 55°03' E 017°39'213.0
2018-Apr-07 00:29N 55°02' E 017°43'713.0
2018-Apr-06 23:59N 55°01' E 017°54'612.9
2018-Apr-06 23:30N 54°59' E 018°05'612.9
2018-Apr-06 23:00N 54°58' E 018°16'612.5
2018-Apr-06 22:29N 54°55' E 018°26'  
Track history (hours):
 
Tides and Currents Weather Stations Pressure Air Temp Water Temp Dewpoint Dewpoint Depression Visibility Wind Speed Wind Dir Waves Ship Positions

Mare Di Venezia

Last reported at 2018-Apr-16 22:17 UTC. Time now 2018-Apr-20 12:51 UTC.
Position N 49°48' W 003°26'.

; draft 12 m.

Type: Tanker. MMSI: 247242400.

Date/timePositionNaut miles runAvg speedWind from/ knotsBaromVisibWave heightAir tempDewpointWater temp
2018-Apr-16 22:17N 49°48' W 003°26'311.3
2018-Apr-16 22:00N 49°49' W 003°21'710.8
2018-Apr-16 21:22N 49°52' W 003°12'4 9.9
2018-Apr-16 20:59N 49°54' W 003°07'5 9.4
2018-Apr-16 20:30N 49°57' W 003°01'5 9.1
2018-Apr-16 20:00N 49°59' W 002°55'5 8.8
2018-Apr-16 19:27N 50°01' W 002°48'4 9.1
2018-Apr-16 19:00N 50°02' W 002°42'5 9.1
2018-Apr-16 18:28N 50°03' W 002°35'2110.6
2018-Apr-16 16:30N 50°08' W 002°03'713.6
2018-Apr-16 16:01N 50°10' W 001°53'714.5
2018-Apr-16 15:30N 50°12' W 001°42'815.1
2018-Apr-16 15:00N 50°14' W 001°31'815.4
2018-Apr-16 14:31N 50°16' W 001°19'915.4
2018-Apr-16 13:57N 50°18' W 001°06'3013.7
2018-Apr-16 11:46N 50°26' W 000°21'312.1
2018-Apr-16 11:30N 50°27' W 000°16'611.4
2018-Apr-16 11:01N 50°28' W 000°07'510.5
2018-Apr-16 10:31N 50°30' E 000°01'5 9.9
2018-Apr-16 10:01N 50°31' E 000°08'5 9.0
2018-Apr-16 09:30N 50°32' E 000°15'4 8.8
2018-Apr-16 09:01N 50°33' E 000°22'5 9.2
2018-Apr-16 08:31N 50°34' E 000°29'5 9.8
2018-Apr-16 08:00N 50°36' E 000°36'510.9
2018-Apr-16 07:31N 50°39' E 000°43'611.9
2018-Apr-16 07:00N 50°42' E 000°50'612.8
2018-Apr-16 06:31N 50°46' E 000°59'813.3
2018-Apr-16 05:53N 50°51' E 001°09'1613.3
2018-Apr-16 04:43N 51°01' E 001°28'312.2
2018-Apr-16 04:28N 51°04' E 001°31'511.5
2018-Apr-16 04:00N 51°07' E 001°37'511.1
2018-Apr-16 03:30N 51°11' E 001°43'510.7
2018-Apr-16 03:01N 51°16' E 001°48'510.2
2018-Apr-16 02:30N 51°20' E 001°53'510.1
2018-Apr-16 02:00N 51°24' E 001°57'5 9.9
2018-Apr-16 01:30N 51°28' E 002°02'5 9.9
2018-Apr-16 01:00N 51°32' E 002°07'510.0
2018-Apr-16 00:30N 51°35' E 002°13'510.5
2018-Apr-15 23:59N 51°39' E 002°19'611.2
2018-Apr-15 23:27N 51°44' E 002°25'611.9
2018-Apr-15 22:56N 51°48' E 002°32'4112.2
2018-Apr-15 19:35N 52°04' E 003°33'413.1
2018-Apr-15 19:16N 52°03' E 003°40'313.1
2018-Apr-15 19:00N 52°03' E 003°45'611.7
2018-Apr-15 18:29N 52°02' E 003°55'510.8
2018-Apr-15 18:00N 51°60' E 004°02'5 9.5
2018-Apr-15 17:30N 51°57' E 004°09'3 5.0
2018-Apr-15 16:59N 51°56' E 004°12'0 0.0
2018-Apr-15 16:22N 51°56' E 004°12'0 0.0
2018-Apr-15 15:58N 51°56' E 004°12'0 0.0
2018-Apr-15 15:28N 51°56' E 004°12'0 0.0
2018-Apr-15 14:58N 51°56' E 004°12'0 0.0
2018-Apr-15 14:28N 51°56' E 004°12'0 0.0
2018-Apr-15 14:00N 51°56' E 004°12'0 0.0
2018-Apr-15 13:30N 51°56' E 004°12'0 0.0
2018-Apr-15 13:00N 51°56' E 004°12'0 0.0
2018-Apr-15 12:27N 51°56' E 004°12'0 0.0
2018-Apr-15 12:00N 51°56' E 004°12'0 0.0
2018-Apr-15 11:29N 51°56' E 004°12'0 0.0
2018-Apr-15 10:59N 51°56' E 004°12'0 0.0
2018-Apr-15 10:28N 51°56' E 004°12'0 0.0
2018-Apr-15 09:58N 51°56' E 004°12'0 0.0
2018-Apr-15 09:25N 51°56' E 004°12'0 0.0
2018-Apr-15 08:58N 51°56' E 004°12'0 0.0
2018-Apr-15 08:28N 51°56' E 004°12'0 0.0
2018-Apr-15 08:00N 51°56' E 004°12'0 0.0
2018-Apr-15 07:29N 51°56' E 004°12'0 0.0
2018-Apr-15 07:00N 51°56' E 004°12'0 0.0
2018-Apr-15 06:30N 51°56' E 004°12'0 0.0
2018-Apr-15 06:00N 51°56' E 004°12'0 0.0
2018-Apr-15 05:29N 51°56' E 004°12'0 0.0
2018-Apr-15 04:59N 51°56' E 004°12'0 0.0
2018-Apr-15 04:29N 51°56' E 004°12'0 0.0
2018-Apr-15 03:59N 51°56' E 004°12'0 0.0
2018-Apr-15 03:28N 51°56' E 004°12'0 0.0
2018-Apr-15 02:58N 51°56' E 004°12'0 0.0
2018-Apr-15 02:28N 51°56' E 004°12'0 0.0
2018-Apr-15 01:58N 51°56' E 004°12'0 0.0
2018-Apr-15 01:28N 51°56' E 004°12'0 0.0
2018-Apr-15 01:00N 51°56' E 004°12'0 0.0
2018-Apr-15 00:27N 51°56' E 004°12'0 0.0
2018-Apr-15 00:00N 51°56' E 004°12'0 0.0
2018-Apr-14 23:30N 51°56' E 004°12'0 0.0
2018-Apr-14 22:59N 51°56' E 004°12'0 0.0
2018-Apr-14 22:29N 51°56' E 004°12'0 0.0
2018-Apr-14 21:59N 51°56' E 004°12'0 0.0
2018-Apr-14 21:26N 51°56' E 004°12'0 0.0
2018-Apr-14 20:59N 51°56' E 004°12'0 0.0
2018-Apr-14 20:28N 51°56' E 004°12'0 0.0
2018-Apr-14 19:58N 51°56' E 004°12'0 0.0
2018-Apr-14 19:28N 51°56' E 004°12'0 0.0
2018-Apr-14 18:55N 51°56' E 004°12'0 0.0
2018-Apr-14 18:28N 51°56' E 004°12'0 0.0
2018-Apr-14 18:00N 51°56' E 004°12'0 0.0
2018-Apr-14 17:27N 51°56' E 004°12'0 0.0
2018-Apr-14 17:00N 51°56' E 004°12'0 0.0
2018-Apr-14 16:30N 51°56' E 004°12'0 0.0
2018-Apr-14 15:53N 51°56' E 004°12'0 0.0
2018-Apr-14 15:29N 51°56' E 004°12'0 0.0
2018-Apr-14 14:56N 51°56' E 004°12'0 0.0
2018-Apr-14 14:29N 51°56' E 004°12'0 0.0
2018-Apr-14 13:59N 51°56' E 004°12'0 0.0
2018-Apr-14 13:28N 51°56' E 004°12'0 0.0
2018-Apr-14 12:52N 51°56' E 004°12'0 0.0
2018-Apr-14 12:28N 51°56' E 004°12'0 0.0
2018-Apr-14 11:58N 51°56' E 004°12'0 0.0
2018-Apr-14 11:24N 51°56' E 004°12'0 0.0
2018-Apr-14 11:00N 51°56' E 004°12'0 0.0
2018-Apr-14 10:30N 51°56' E 004°12'0 0.0
2018-Apr-14 10:00N 51°56' E 004°12'0 0.0
2018-Apr-14 09:30N 51°56' E 004°12'0 0.0
2018-Apr-14 08:59N 51°56' E 004°12'0 0.0
2018-Apr-14 08:26N 51°56' E 004°12'0 0.0
2018-Apr-14 07:59N 51°56' E 004°12'0 0.0
2018-Apr-14 07:29N 51°56' E 004°12'0 0.0
2018-Apr-14 06:59N 51°56' E 004°12'0 0.0
2018-Apr-14 06:28N 51°56' E 004°12'0 0.0
2018-Apr-14 05:55N 51°56' E 004°12'0 0.0
2018-Apr-14 05:28N 51°56' E 004°12'0 0.0
2018-Apr-14 04:58N 51°56' E 004°12'0 0.0
2018-Apr-14 04:31N 51°56' E 004°12'0 0.0
2018-Apr-14 04:00N 51°56' E 004°12'0 0.0
2018-Apr-14 03:30N 51°56' E 004°12'0 0.0
2018-Apr-14 03:00N 51°56' E 004°12'0 0.0
2018-Apr-14 02:30N 51°56' E 004°12'0 0.0
2018-Apr-14 01:59N 51°56' E 004°12'0 0.0
2018-Apr-14 01:29N 51°56' E 004°12'0 0.0
2018-Apr-14 00:59N 51°56' E 004°12'0 0.0
2018-Apr-14 00:29N 51°56' E 004°12'0 0.0
2018-Apr-13 23:59N 51°56' E 004°12'0 0.0
2018-Apr-13 23:28N 51°56' E 004°12'0 0.0
2018-Apr-13 22:58N 51°56' E 004°12'0 0.0
2018-Apr-13 22:28N 51°56' E 004°12'0 0.0
2018-Apr-13 21:58N 51°56' E 004°12'0 0.0
2018-Apr-13 21:28N 51°56' E 004°12'0 0.0
2018-Apr-13 21:00N 51°56' E 004°12'0 0.0
2018-Apr-13 20:30N 51°56' E 004°12'0 0.0
2018-Apr-13 20:00N 51°56' E 004°12'0 0.0
2018-Apr-13 19:30N 51°56' E 004°12'0 0.0
2018-Apr-13 19:00N 51°56' E 004°12'0 0.1
2018-Apr-13 18:30N 51°56' E 004°12'1 1.2
2018-Apr-13 18:00N 51°56' E 004°12'3 6.4
2018-Apr-13 17:30N 51°58' E 004°07'5 9.7
2018-Apr-13 17:00N 51°60' E 004°00'510.9
2018-Apr-13 16:30N 52°01' E 003°52'510.0
2018-Apr-13 16:00N 52°05' E 003°46'5 9.7
2018-Apr-13 15:30N 52°10' E 003°46'4 7.5
2018-Apr-13 15:00N 52°12' E 003°42'1 1.4
2018-Apr-13 14:30N 52°12' E 003°41'0 0.0
2018-Apr-13 13:57N 52°12' E 003°41'0 0.0
2018-Apr-13 13:30N 52°12' E 003°41'0 0.0
2018-Apr-13 12:48N 52°12' E 003°41'0 0.1
2018-Apr-13 12:29N 52°12' E 003°41'0 0.1
2018-Apr-13 11:59N 52°12' E 003°41'0 0.0
2018-Apr-13 11:29N 52°12' E 003°41'0 0.1
2018-Apr-13 10:56N 52°12' E 003°41'0 0.1
2018-Apr-13 09:40N 52°11' E 003°41'0 0.2
2018-Apr-13 09:25N 52°11' E 003°41'0 0.0
2018-Apr-13 08:19N 52°11' E 003°41'0 0.0
2018-Apr-13 08:01N 52°11' E 003°41'0 0.0
2018-Apr-13 07:18N 52°11' E 003°41'0 0.0
2018-Apr-13 06:39N 52°11' E 003°41'0 0.1
2018-Apr-13 06:30N 52°11' E 003°41'0 0.0
2018-Apr-13 05:48N 52°11' E 003°41'0 0.0
2018-Apr-13 05:29N 52°11' E 003°41'0 0.1
2018-Apr-13 04:56N 52°11' E 003°41'0 0.2
2018-Apr-13 04:26N 52°12' E 003°41'0 0.1
2018-Apr-13 03:26N 52°12' E 003°41'0 0.1
2018-Apr-13 02:58N 52°12' E 003°41'0 0.0
2018-Apr-13 02:25N 52°12' E 003°41'0 0.0
2018-Apr-13 01:58N 52°12' E 003°41'0 0.0
2018-Apr-13 01:28N 52°12' E 003°41'0 0.0
2018-Apr-13 00:54N 52°12' E 003°41'0 0.0
2018-Apr-13 00:30N 52°12' E 003°41'0 0.0
2018-Apr-13 00:00N 52°12' E 003°41'0 0.1
2018-Apr-12 23:30N 52°12' E 003°41'0 0.2
2018-Apr-12 22:57N 52°12' E 003°41'0 0.1
2018-Apr-12 21:53N 52°11' E 003°41'0 0.0
2018-Apr-12 21:14N 52°11' E 003°41'0 0.0
2018-Apr-12 20:56N 52°11' E 003°41'0 0.0
2018-Apr-12 20:19N 52°11' E 003°41'0 0.0
2018-Apr-12 19:55N 52°11' E 003°41'0 0.0
2018-Apr-12 19:22N 52°11' E 003°41'0 0.0
2018-Apr-12 18:52N 52°11' E 003°41'0 0.0
2018-Apr-12 18:28N 52°11' E 003°41'0 0.0
2018-Apr-12 17:57N 52°11' E 003°41'0 0.0
2018-Apr-12 17:27N 52°11' E 003°41'0 0.0
2018-Apr-12 16:48N 52°11' E 003°41'0 0.0
2018-Apr-12 15:48N 52°11' E 003°41'0 0.3
2018-Apr-12 15:29N 52°11' E 003°41'0 0.3
2018-Apr-12 14:53N 52°12' E 003°41'0 0.0
2018-Apr-12 14:20N 52°12' E 003°41'0 0.0
2018-Apr-12 13:47N 52°12' E 003°41'0 0.0
2018-Apr-12 13:19N 52°12' E 003°41'0 0.0
2018-Apr-12 12:58N 52°12' E 003°41'0 0.0
2018-Apr-12 12:19N 52°12' E 003°41'0 0.1
2018-Apr-12 11:52N 52°12' E 003°41'0 0.1
2018-Apr-12 11:28N 52°12' E 003°41'0 0.1
2018-Apr-12 10:54N 52°12' E 003°41'0 0.1
2018-Apr-12 10:30N 52°12' E 003°41'0 0.1
2018-Apr-12 09:03N 52°12' E 003°41'0 0.2
2018-Apr-12 08:54N 52°11' E 003°41'0 0.0
2018-Apr-12 08:29N 52°11' E 003°41'0 0.0
2018-Apr-12 07:59N 52°11' E 003°41'0 0.0
2018-Apr-12 06:53N 52°11' E 003°41'0 0.0
2018-Apr-12 06:29N 52°11' E 003°41'0 0.0
2018-Apr-12 05:52N 52°11' E 003°41'0 0.0
2018-Apr-12 05:19N 52°11' E 003°41'0 0.0
2018-Apr-12 04:58N 52°11' E 003°41'0 0.0
2018-Apr-12 04:09N 52°11' E 003°41'0 0.1
2018-Apr-12 04:00N 52°11' E 003°41'0 0.2
2018-Apr-12 03:15N 52°12' E 003°41'0 0.0
2018-Apr-12 02:54N 52°12' E 003°41'0 0.1
2018-Apr-12 02:27N 52°12' E 003°41'0 0.0
2018-Apr-12 02:00N 52°12' E 003°41'0 0.0
2018-Apr-12 01:26N 52°12' E 003°41'0 0.1
2018-Apr-12 00:59N 52°12' E 003°41'0 0.1
2018-Apr-12 00:02N 52°12' E 003°41'0 0.1
2018-Apr-11 23:56N 52°12' E 003°41'0 0.1
2018-Apr-11 23:22N 52°12' E 003°41'0 0.1
2018-Apr-11 22:55N 52°12' E 003°41'0 0.0
2018-Apr-11 22:28N 52°12' E 003°41'0 0.0
2018-Apr-11 21:55N 52°12' E 003°41'0 0.1
2018-Apr-11 21:25N 52°12' E 003°41'0 0.1
2018-Apr-11 20:48N 52°11' E 003°41'0 0.0
2018-Apr-11 20:30N 52°11' E 003°41'0 0.1
2018-Apr-11 20:00N 52°12' E 003°41'0 0.0
2018-Apr-11 19:24N 52°12' E 003°41'0 0.0
2018-Apr-11 19:00N 52°12' E 003°41'0 0.0
2018-Apr-11 18:29N 52°12' E 003°41'0 0.1
2018-Apr-11 13:54N 52°12' E 003°41'0 0.1
2018-Apr-11 13:27N 52°12' E 003°41'0 0.0
2018-Apr-11 12:12N 52°12' E 003°41'0 0.1
2018-Apr-11 08:55N 52°12' E 003°41'0 0.0
2018-Apr-11 08:25N 52°12' E 003°41'0 0.0
2018-Apr-11 07:58N 52°12' E 003°41'0 0.0
2018-Apr-11 07:25N 52°12' E 003°41'0 0.0
2018-Apr-11 06:51N 52°12' E 003°41'0 0.0
2018-Apr-11 06:24N 52°12' E 003°41'0 0.0
2018-Apr-11 05:12N 52°12' E 003°41'0 0.1
2018-Apr-11 01:37N 52°12' E 003°41'0 0.1
2018-Apr-11 01:16N 52°12' E 003°41'0 0.1
2018-Apr-11 01:00N 52°12' E 003°41'0 0.0
2018-Apr-11 00:25N 52°12' E 003°41'0 0.2
2018-Apr-10 23:57N 52°12' E 003°41'0 0.1
2018-Apr-10 23:21N 52°12' E 003°41'0 0.1
2018-Apr-10 23:00N 52°12' E 003°41'0 0.1
2018-Apr-10 22:30N 52°12' E 003°41'0 0.1
2018-Apr-10 21:59N 52°12' E 003°41'0 0.0
2018-Apr-10 21:26N 52°12' E 003°41'0 0.1
2018-Apr-10 20:56N 52°12' E 003°41'0 0.2
2018-Apr-10 20:29N 52°12' E 003°41'0 0.1
2018-Apr-10 19:56N 52°11' E 003°41'0 0.1
2018-Apr-10 19:28N 52°11' E 003°41'0 0.0
2018-Apr-10 18:58N 52°11' E 003°41'0 0.0
2018-Apr-10 18:22N 52°11' E 003°41'0 0.0
2018-Apr-10 17:55N 52°11' E 003°41'0 0.0
2018-Apr-10 16:00N 52°11' E 003°41'0 0.0
2018-Apr-10 15:24N 52°11' E 003°41'0 0.1
2018-Apr-10 12:50N 52°12' E 003°41'0 0.1
2018-Apr-10 12:16N 52°12' E 003°41'0 0.0
2018-Apr-10 11:58N 52°12' E 003°41'0 0.0
2018-Apr-10 11:10N 52°12' E 003°41'0 0.0
2018-Apr-10 10:55N 52°12' E 003°41'0 0.0
2018-Apr-10 10:25N 52°12' E 003°41'0 0.0
2018-Apr-10 09:51N 52°12' E 003°41'0 0.0
2018-Apr-10 09:27N 52°12' E 003°41'0 0.1
2018-Apr-10 07:17N 52°11' E 003°41'0 0.1
2018-Apr-10 06:08N 52°11' E 003°41'0 0.0
2018-Apr-10 05:19N 52°11' E 003°41'0 0.1
2018-Apr-10 04:46N 52°11' E 003°41'0 0.0
2018-Apr-10 04:25N 52°11' E 003°41'0 0.0
2018-Apr-10 03:40N 52°11' E 003°41'0 0.1
2018-Apr-10 03:27N 52°11' E 003°41'0 0.1
2018-Apr-10 02:54N 52°11' E 003°41'0 0.0
2018-Apr-10 02:30N 52°11' E 003°41'0 0.0
2018-Apr-10 01:45N 52°11' E 003°41'0 0.1
2018-Apr-10 01:18N 52°11' E 003°41'0 0.1
2018-Apr-10 00:59N 52°12' E 003°41'0 0.1
2018-Apr-10 00:20N 52°12' E 003°41'0 0.0
2018-Apr-09 23:59N 52°12' E 003°41'0 0.1
2018-Apr-09 23:20N 52°12' E 003°41'0 0.1
2018-Apr-09 22:52N 52°12' E 003°41'0 0.3
2018-Apr-09 22:28N 52°11' E 003°41'0 0.2
2018-Apr-09 21:58N 52°12' E 003°41'0 0.2
2018-Apr-09 21:28N 52°11' E 003°41'0 0.2
2018-Apr-09 20:58N 52°12' E 003°41'0 0.0
2018-Apr-09 20:27N 52°12' E 003°41'0 0.1
2018-Apr-09 20:00N 52°12' E 003°41'0 0.1
2018-Apr-09 19:30N 52°11' E 003°41'0 0.0
2018-Apr-09 18:55N 52°11' E 003°41'2 3.0
2018-Apr-09 18:23N 52°11' E 003°38'5 8.9
2018-Apr-09 17:50N 52°10' E 003°31'5 8.2
2018-Apr-09 17:14N 52°09' E 003°23'610.5
2018-Apr-09 16:41N 52°14' E 003°18'212.1
2018-Apr-09 16:30N 52°16' E 003°17'16811.8
2018-Apr-09 02:18N 54°49' E 005°14'612.5
2018-Apr-09 01:50N 54°54' E 005°19'412.4
2018-Apr-09 01:30N 54°58' E 005°23'612.3
2018-Apr-09 00:59N 55°03' E 005°28'612.4
2018-Apr-09 00:29N 55°08' E 005°34'612.3
2018-Apr-08 23:59N 55°14' E 005°39'19911.6
2018-Apr-08 06:52N 57°43' E 009°37'512.0
2018-Apr-08 06:28N 57°44' E 009°45'712.4
2018-Apr-08 05:53N 57°45' E 009°59'512.6
2018-Apr-08 05:28N 57°47' E 010°08'612.6
2018-Apr-08 05:00N 57°48' E 010°19'613.0
2018-Apr-08 04:31N 57°49' E 010°31'612.0
2018-Apr-08 03:59N 57°49' E 010°43'611.9
2018-Apr-08 03:30N 57°46' E 010°52'612.6
2018-Apr-08 03:00N 57°42' E 011°01'612.6
2018-Apr-08 02:30N 57°37' E 011°09'612.6
2018-Apr-08 02:00N 57°33' E 011°17'612.4
2018-Apr-08 01:30N 57°29' E 011°26'611.8
2018-Apr-08 01:01N 57°23' E 011°30'611.7
2018-Apr-08 00:30N 57°18' E 011°33'611.9
2018-Apr-08 00:00N 57°12' E 011°37'612.2
2018-Apr-07 23:30N 57°06' E 011°41'612.0
2018-Apr-07 23:00N 57°00' E 011°44'611.7
2018-Apr-07 22:27N 56°55' E 011°49'4612.1
2018-Apr-07 18:39N 56°12' E 012°21'213.6
2018-Apr-07 18:29N 56°11' E 012°24'613.4
2018-Apr-07 18:01N 56°07' E 012°33'714.8
2018-Apr-07 17:31N 56°01' E 012°40'713.6
2018-Apr-07 17:00N 55°54' E 012°39'713.7
2018-Apr-07 16:31N 55°47' E 012°42'714.1
2018-Apr-07 16:00N 55°40' E 012°41'510.3
2018-Apr-07 15:30N 55°35' E 012°42'5 9.1
2018-Apr-07 15:00N 55°30' E 012°43'612.6
2018-Apr-07 14:30N 55°24' E 012°41'612.5
2018-Apr-07 14:00N 55°18' E 012°42'713.9
2018-Apr-07 13:29N 55°16' E 012°55'713.7
2018-Apr-07 13:00N 55°15' E 013°06'713.8
2018-Apr-07 12:30N 55°15' E 013°18'713.9
2018-Apr-07 12:00N 55°14' E 013°30'714.1
2018-Apr-07 11:29N 55°14' E 013°43'713.8
2018-Apr-07 11:00N 55°13' E 013°55'713.8
2018-Apr-07 10:30N 55°13' E 014°07'713.3
2018-Apr-07 10:00N 55°14' E 014°18'713.1
2018-Apr-07 09:30N 55°19' E 014°26'613.1
2018-Apr-07 09:00N 55°24' E 014°33'713.1
2018-Apr-07 08:30N 55°28' E 014°43'713.6
2018-Apr-07 08:00N 55°30' E 014°54'613.0
2018-Apr-07 07:30N 55°29' E 015°05'713.8
2018-Apr-07 07:00N 55°25' E 015°15'713.9
2018-Apr-07 06:30N 55°21' E 015°25'713.9
2018-Apr-07 06:00N 55°18' E 015°36'713.8
2018-Apr-07 05:29N 55°16' E 015°48'613.7
2018-Apr-07 05:01N 55°15' E 015°59'713.6
2018-Apr-07 04:30N 55°13' E 016°11'1013.5
2018-Apr-07 03:45N 55°11' E 016°28'4113.3
2018-Apr-07 00:39N 55°03' E 017°39'213.0
2018-Apr-07 00:29N 55°02' E 017°43'713.0
2018-Apr-06 23:59N 55°01' E 017°54'612.9
2018-Apr-06 23:30N 54°59' E 018°05'612.9
2018-Apr-06 23:00N 54°58' E 018°16'612.5
2018-Apr-06 22:29N 54°55' E 018°26'  

Dump ship's entire track history